Augusta, Maine
Current Conditions -  °F | °C
As of 7:53 PM on Wednesday 26 Nov 2014 (Local Time) from KAUG Reporting Station
Moderate Snow Moderate Snow  
Wind Chill: 18°   Ceiling: 500
Heat Index: 30°   Visibility: 0.5mi
Dew Point: 29°   Wind: 20mph
Humidity: 96%   Direction: 10°N
Pressure: 29.93"   Gusts: NA
Location:  44.32°N, 69.78°W
Report Text: KAUG 270053Z AUTO 01017KT 1/2SM SN FZFG OVC005 M01/M02 A2993 RMK AO2 PRESFR SLP141 P0005 T10111017
Loading
Personal Weather Stations






























Interactive Weather Map New forecast layout! Learn more

10-Day Weather Forecast

Advertisements
Track Severe Weather on mobile